sensor_id;sensor_type;location;lat;lon;timestamp;temperature;humidity
50738;DHT22;36703;48.154;17.126;2022-10-19T07:20:24;20.00;58.50
50738;DHT22;36703;48.154;17.126;2022-10-19T07:24:25;20.00;58.70
50738;DHT22;36703;48.154;17.126;2022-10-19T07:28:27;20.00;58.80
50738;DHT22;36703;48.154;17.126;2022-10-19T07:32:30;20.00;58.10
50738;DHT22;36703;48.154;17.126;2022-10-19T07:36:32;20.10;58.50
50738;DHT22;36703;48.154;17.126;2022-10-19T07:40:34;20.30;57.70
50738;DHT22;36703;48.154;17.126;2022-10-19T07:44:36;20.40;57.60
50738;DHT22;36703;48.154;17.126;2022-10-19T07:48:37;20.50;57.80
50738;DHT22;36703;48.154;17.126;2022-10-19T07:52:39;20.60;57.80
50738;DHT22;36703;48.154;17.126;2022-10-19T07:56:40;20.70;56.80
50738;DHT22;36703;48.154;17.126;2022-10-19T08:00:42;20.80;57.20
50738;DHT22;36703;48.154;17.126;2022-10-19T08:04:43;20.90;57.30
50738;DHT22;36703;48.154;17.126;2022-10-19T08:08:45;21.00;56.60
50738;DHT22;36703;48.154;17.126;2022-10-19T08:12:46;21.20;56.10
50738;DHT22;36703;48.154;17.126;2022-10-19T08:16:48;21.40;56.30
50738;DHT22;36703;48.154;17.126;2022-10-19T08:20:49;21.50;55.80
50738;DHT22;36703;48.154;17.126;2022-10-19T08:24:50;21.40;56.10
50738;DHT22;36703;48.154;17.126;2022-10-19T08:28:52;21.50;55.20
50738;DHT22;36703;48.154;17.126;2022-10-19T08:32:53;21.50;55.10
50738;DHT22;36703;48.154;17.126;2022-10-19T08:36:55;21.60;55.10
50738;DHT22;36703;48.154;17.126;2022-10-19T08:40:56;21.80;55.00
50738;DHT22;36703;48.154;17.126;2022-10-19T08:45:21;21.90;54.00
50738;DHT22;36703;48.154;17.126;2022-10-19T08:49:26;21.90;53.60
50738;DHT22;36703;48.154;17.126;2022-10-19T08:53:35;21.90;53.50
50738;DHT22;36703;48.154;17.126;2022-10-19T08:57:47;21.80;53.50
50738;DHT22;36703;48.154;17.126;2022-10-19T09:02:00;22.00;53.40
50738;DHT22;36703;48.154;17.126;2022-10-19T09:10:25;22.00;53.30
50738;DHT22;36703;48.154;17.126;2022-10-19T09:18:53;22.20;52.80
50738;DHT22;36703;48.154;17.126;2022-10-19T09:23:01;22.50;53.00
50738;DHT22;36703;48.154;17.126;2022-10-19T09:27:04;22.70;51.60
50738;DHT22;36703;48.154;17.126;2022-10-19T09:31:06;22.80;52.10
50738;DHT22;36703;48.154;17.126;2022-10-19T09:35:22;23.10;51.00
50738;DHT22;36703;48.154;17.126;2022-10-19T09:39:27;23.20;50.70
50738;DHT22;36703;48.154;17.126;2022-10-19T09:43:29;23.10;50.60
50738;DHT22;36703;48.154;17.126;2022-10-19T09:47:33;23.30;50.30
50738;DHT22;36703;48.154;17.126;2022-10-19T09:51:46;23.20;50.10
50738;DHT22;36703;48.154;17.126;2022-10-19T09:56:38;23.50;49.70
50738;DHT22;36703;48.154;17.126;2022-10-19T10:00:25;24.10;49.20
50738;DHT22;36703;48.154;17.126;2022-10-19T10:04:32;24.40;48.40
50738;DHT22;36703;48.154;17.126;2022-10-19T10:08:36;24.40;48.50
50738;DHT22;36703;48.154;17.126;2022-10-19T10:12:39;24.20;48.20
50738;DHT22;36703;48.154;17.126;2022-10-19T10:16:40;24.50;48.50
50738;DHT22;36703;48.154;17.126;2022-10-19T10:25:11;25.60;50.70
50738;DHT22;36703;48.154;17.126;2022-10-19T10:29:24;26.10;50.80
50738;DHT22;36703;48.154;17.126;2022-10-19T10:33:27;25.90;50.10
50738;DHT22;36703;48.154;17.126;2022-10-19T10:37:39;25.40;50.20
50738;DHT22;36703;48.154;17.126;2022-10-19T10:41:42;25.00;50.50
50738;DHT22;36703;48.154;17.126;2022-10-19T10:45:45;25.30;50.90
50738;DHT22;36703;48.154;17.126;2022-10-19T10:49:52;26.00;50.10
50738;DHT22;36703;48.154;17.126;2022-10-19T10:54:14;26.60;49.70
50738;DHT22;36703;48.154;17.126;2022-10-19T10:58:18;26.80;48.90
50738;DHT22;36703;48.154;17.126;2022-10-19T11:07:04;27.50;53.70
50738;DHT22;36703;48.154;17.126;2022-10-19T11:15:22;28.20;56.00
50738;DHT22;36703;48.154;17.126;2022-10-19T11:19:29;28.50;44.00
50738;DHT22;36703;48.154;17.126;2022-10-19T11:31:55;28.70;42.00
50738;DHT22;36703;48.154;17.126;2022-10-19T11:35:57;28.80;41.50
50738;DHT22;36703;48.154;17.126;2022-10-19T11:45:19;28.90;40.00
50738;DHT22;36703;48.154;17.126;2022-10-19T11:57:41;28.20;39.30
50738;DHT22;36703;48.154;17.126;2022-10-19T12:19:20;28.10;39.40
50738;DHT22;36703;48.154;17.126;2022-10-19T12:23:25;28.20;39.30
50738;DHT22;36703;48.154;17.126;2022-10-19T12:27:32;28.40;39.40
50738;DHT22;36703;48.154;17.126;2022-10-19T12:31:35;28.40;39.10
50738;DHT22;36703;48.154;17.126;2022-10-19T12:35:51;28.30;39.50
50738;DHT22;36703;48.154;17.126;2022-10-19T12:39:56;28.10;39.30
50738;DHT22;36703;48.154;17.126;2022-10-19T12:56:46;27.90;39.60
50738;DHT22;36703;48.154;17.126;2022-10-19T13:00:57;27.80;39.60
50738;DHT22;36703;48.154;17.126;2022-10-19T13:05:02;27.30;40.00
50738;DHT22;36703;48.154;17.126;2022-10-19T13:09:05;27.10;40.10
50738;DHT22;36703;48.154;17.126;2022-10-19T13:13:36;27.00;39.90
50738;DHT22;36703;48.154;17.126;2022-10-19T13:17:47;26.90;40.10
50738;DHT22;36703;48.154;17.126;2022-10-19T13:34:39;27.00;40.20
50738;DHT22;36703;48.154;17.126;2022-10-19T13:38:44;27.00;40.10
50738;DHT22;36703;48.154;17.126;2022-10-19T13:42:58;26.80;40.30
50738;DHT22;36703;48.154;17.126;2022-10-19T13:51:25;26.00;40.70
50738;DHT22;36703;48.154;17.126;2022-10-19T13:55:43;25.60;41.00
50738;DHT22;36703;48.154;17.126;2022-10-19T14:00:11;25.40;40.90
50738;DHT22;36703;48.154;17.126;2022-10-19T14:12:41;24.80;41.00
50738;DHT22;36703;48.154;17.126;2022-10-19T14:17:12;24.60;41.30
50738;DHT22;36703;48.154;17.126;2022-10-19T14:21:13;24.50;41.50
50738;DHT22;36703;48.154;17.126;2022-10-19T14:25:15;24.30;41.70
50738;DHT22;36703;48.154;17.126;2022-10-19T14:29:20;24.00;41.50
50738;DHT22;36703;48.154;17.126;2022-10-19T14:33:22;23.80;42.00
50738;DHT22;36703;48.154;17.126;2022-10-19T14:37:25;23.50;43.90
50738;DHT22;36703;48.154;17.126;2022-10-19T14:45:29;23.10;43.50
50738;DHT22;36703;48.154;17.126;2022-10-19T14:49:32;22.90;43.40
50738;DHT22;36703;48.154;17.126;2022-10-19T14:53:39;22.80;43.90
50738;DHT22;36703;48.154;17.126;2022-10-19T14:57:59;22.80;43.90
50738;DHT22;36703;48.154;17.126;2022-10-19T15:02:05;22.70;43.70
50738;DHT22;36703;48.154;17.126;2022-10-19T15:06:27;22.70;43.60
50738;DHT22;36703;48.154;17.126;2022-10-19T15:10:36;22.60;44.50
50738;DHT22;36703;48.154;17.126;2022-10-19T15:14:41;22.40;45.00
50738;DHT22;36703;48.154;17.126;2022-10-19T15:18:42;22.20;37.90
50738;DHT22;36703;48.154;17.126;2022-10-19T15:22:44;22.20;50.60
50738;DHT22;36703;48.154;17.126;2022-10-19T15:30:56;22.00;48.40
50738;DHT22;36703;48.154;17.126;2022-10-19T15:35:14;21.80;38.10
50738;DHT22;36703;48.154;17.126;2022-10-19T15:47:34;21.60;49.10
50738;DHT22;36703;48.154;17.126;2022-10-19T15:51:36;21.70;53.00
50738;DHT22;36703;48.154;17.126;2022-10-19T15:55:41;21.60;59.20
50738;DHT22;36703;48.154;17.126;2022-10-19T15:59:42;21.60;47.60
50738;DHT22;36703;48.154;17.126;2022-10-19T16:03:43;21.50;47.60
50738;DHT22;36703;48.154;17.126;2022-10-19T16:07:45;21.40;47.70
50738;DHT22;36703;48.154;17.126;2022-10-19T16:11:47;21.20;46.10
50738;DHT22;36703;48.154;17.126;2022-10-19T16:15:48;21.10;42.70
50738;DHT22;36703;48.154;17.126;2022-10-19T16:19:50;21.00;42.20
50738;DHT22;36703;48.154;17.126;2022-10-19T16:23:51;20.70;37.90
50738;DHT22;36703;48.154;17.126;2022-10-19T16:27:53;20.60;38.70
50738;DHT22;36703;48.154;17.126;2022-10-19T21:39:53;17.70;41.40
50738;DHT22;36703;48.154;17.126;2022-10-19T21:43:55;17.70;41.40
50738;DHT22;36703;48.154;17.126;2022-10-19T21:47:56;17.70;41.20
50738;DHT22;36703;48.154;17.126;2022-10-19T21:51:58;17.80;41.00
50738;DHT22;36703;48.154;17.126;2022-10-19T21:55:59;17.90;41.00
50738;DHT22;36703;48.154;17.126;2022-10-19T22:36:22;17.90;40.90
50738;DHT22;36703;48.154;17.126;2022-10-19T22:40:23;17.20;41.60
50738;DHT22;36703;48.154;17.126;2022-10-19T22:44:24;17.10;41.80
